Big Bear Station Historical Data
Daily Summary for March 19, 2019 Units:  English    Metric   Both
Next Day »
Daily Weekly Monthly Yearly Custom
  High: Low: Average:
Temperature: 56.8 °F 28.0 °F 39.7 °F
Dew Point: 41.8 °F 24.8 °F 31.9 °F
Humidity: 99% 41% 77%
Wind Speed: 5.8mph 0.0mph 1.1mph
Wind Gust: -999.0mph - -
Wind- - SSW
Pressure: 23.52 in 23.40 in -
Precipitation: 0.00 in    
Historical Graphs
 
 
Tabular Data for March 19, 2019
Time Temperature Dew Point Pressure Wind Wind Speed Wind Gust Humidity Rainfall Rate (Hourly)
00:10 32.2 °F 30.1 °F 23.52 in Calm   -999.0 mph 92% 0.00 in
00:26 31.8 °F 30.0 °F 23.52 in Calm   -999.0 mph 93% 0.00 in
00:41 31.8 °F 30.0 °F 23.51 in Calm   -999.0 mph 93% 0.00 in
00:56 31.5 °F 30.0 °F 23.51 in Calm   -999.0 mph 94% 0.00 in
01:11 31.1 °F 29.6 °F 23.51 in Calm   -999.0 mph 94% 0.00 in
01:26 30.9 °F 29.4 °F 23.51 in Calm   -999.0 mph 94% 0.00 in
01:42 30.4 °F 28.9 °F 23.50 in Calm   -999.0 mph 94% 0.00 in
01:57 30.6 °F 29.3 °F 23.50 in Calm   -999.0 mph 95% 0.00 in
02:13 30.2 °F 28.9 °F 23.50 in Calm   -999.0 mph 95% 0.00 in
02:28 29.8 °F 28.5 °F 23.50 in Calm   -999.0 mph 95% 0.00 in
02:43 29.8 °F 28.8 °F 23.50 in Calm   -999.0 mph 96% 0.00 in
02:58 29.8 °F 28.8 °F 23.50 in Calm   -999.0 mph 96% 0.00 in
03:13 29.5 °F 28.5 °F 23.49 in Calm   -999.0 mph 96% 0.00 in
03:29 29.5 °F 28.8 °F 23.49 in Calm   -999.0 mph 97% 0.00 in
03:44 29.5 °F 28.8 °F 23.49 in Calm   -999.0 mph 97% 0.00 in
03:59 29.1 °F 28.4 °F 23.48 in Calm   -999.0 mph 97% 0.00 in
04:14 28.8 °F 28.1 °F 23.49 in Calm   -999.0 mph 97% 0.00 in
04:29 29.1 °F 28.6 °F 23.48 in Calm   -999.0 mph 98% 0.00 in
04:45 28.9 °F 28.4 °F 23.48 in Calm   -999.0 mph 98% 0.00 in
05:00 28.8 °F 28.3 °F 23.48 in Calm   -999.0 mph 98% 0.00 in
05:15 28.4 °F 27.9 °F 23.48 in Calm   -999.0 mph 98% 0.00 in
05:30 28.6 °F 28.1 °F 23.48 in Calm   -999.0 mph 98% 0.00 in
05:46 28.6 °F 28.1 °F 23.48 in Calm   -999.0 mph 98% 0.00 in
06:01 28.0 °F 27.5 °F 23.48 in Calm   -999.0 mph 98% 0.00 in
06:17 28.0 °F 27.5 °F 23.48 in Calm   -999.0 mph 98% 0.00 in
06:32 28.2 °F 27.7 °F 23.48 in Calm   -999.0 mph 98% 0.00 in
06:47 28.2 °F 27.7 °F 23.48 in Calm   -999.0 mph 98% 0.00 in
07:02 28.0 °F 27.5 °F 23.48 in Calm   -999.0 mph 98% 0.00 in
07:17 28.6 °F 28.4 °F 23.49 in Calm   -999.0 mph 99% 0.00 in
07:33 28.6 °F 28.4 °F 23.49 in Calm   -999.0 mph 99% 0.00 in
07:48 29.3 °F 29.1 °F 23.49 in Calm   -999.0 mph 99% 0.00 in
08:03 30.0 °F 29.8 °F 23.49 in Calm   -999.0 mph 99% 0.00 in
08:18 32.0 °F 31.8 °F 23.50 in Calm   -999.0 mph 99% 0.00 in
08:34 33.3 °F 32.5 °F 23.49 in Calm   -999.0 mph 97% 0.00 in
08:49 34.0 °F 33.2 °F 23.50 in Calm   -999.0 mph 97% 0.00 in
09:04 35.1 °F 34.3 °F 23.49 in Calm   -999.0 mph 97% 0.00 in
09:20 36.0 °F 35.0 °F 23.49 in Calm   -999.0 mph 96% 0.00 in
09:35 37.9 °F 34.9 °F 23.50 in Calm   -999.0 mph 89% 0.00 in
09:50 43.5 °F 30.1 °F 23.49 in South 1.1 mph -999.0 mph 59% 0.00 in
10:05 45.1 °F 29.9 °F 23.49 in Calm   -999.0 mph 55% 0.00 in
10:21 47.7 °F 27.4 °F 23.49 in Calm   -999.0 mph 45% 0.00 in
10:36 48.7 °F 28.8 °F 23.49 in Calm   -999.0 mph 46% 0.00 in
10:52 50.2 °F 27.4 °F 23.49 in SSW 1.7 mph -999.0 mph 41% 0.00 in
11:07 52.0 °F 31.3 °F 23.49 in Calm   -999.0 mph 45% 0.00 in
11:22 52.7 °F 29.6 °F 23.49 in Calm   -999.0 mph 41% 0.00 in
11:37 55.6 °F 32.9 °F 23.48 in Calm   -999.0 mph 42% 0.00 in
11:52 54.5 °F 32.5 °F 23.48 in ESE 2.2 mph -999.0 mph 43% 0.00 in
12:07 55.2 °F 32.5 °F 23.48 in SSW 2.7 mph -999.0 mph 42% 0.00 in
12:23 56.7 °F 34.4 °F 23.48 in West 4.7 mph -999.0 mph 43% 0.00 in
12:38 56.8 °F 35.1 °F 23.48 in Calm   -999.0 mph 44% 0.00 in
12:53 54.7 °F 33.8 °F 23.47 in Calm   -999.0 mph 45% 0.00 in
13:09 54.9 °F 33.9 °F 23.47 in Calm   -999.0 mph 45% 0.00 in
13:24 52.9 °F 33.7 °F 23.46 in NNW 1.1 mph -999.0 mph 48% 0.00 in
13:39 52.9 °F 34.3 °F 23.46 in South 1.1 mph -999.0 mph 49% 0.00 in
13:55 52.3 °F 35.2 °F 23.45 in SSW 2.7 mph -999.0 mph 52% 0.00 in
14:10 54.3 °F 35.5 °F 23.44 in Calm   -999.0 mph 49% 0.00 in
14:25 53.1 °F 35.9 °F 23.44 in Calm   -999.0 mph 52% 0.00 in
14:40 54.1 °F 34.8 °F 23.43 in Calm   -999.0 mph 48% 0.00 in
14:55 53.4 °F 37.2 °F 23.43 in Calm   -999.0 mph 54% 0.00 in
15:11 52.0 °F 40.6 °F 23.44 in Calm   -999.0 mph 65% 0.00 in
15:26 51.1 °F 40.9 °F 23.43 in South 4.2 mph -999.0 mph 68% 0.00 in
15:41 49.6 °F 40.6 °F 23.43 in Calm   -999.0 mph 71% 0.00 in
15:57 51.6 °F 41.8 °F 23.43 in Calm   -999.0 mph 69% 0.00 in
16:12 50.9 °F 41.1 °F 23.43 in Calm   -999.0 mph 69% 0.00 in
16:27 49.6 °F 40.9 °F 23.43 in East 1.7 mph -999.0 mph 72% 0.00 in
16:43 49.6 °F 40.9 °F 23.42 in Calm   -999.0 mph 72% 0.00 in
16:58 50.0 °F 41.3 °F 23.42 in Calm   -999.0 mph 72% 0.00 in
17:13 50.4 °F 41.0 °F 23.41 in Calm   -999.0 mph 70% 0.00 in
17:28 49.5 °F 40.5 °F 23.41 in Calm   -999.0 mph 71% 0.00 in
17:44 46.6 °F 40.1 °F 23.42 in SSW 2.7 mph -999.0 mph 78% 0.00 in
17:59 45.0 °F 39.2 °F 23.42 in Calm   -999.0 mph 80% 0.00 in
18:14 43.5 °F 36.8 °F 23.42 in Calm   -999.0 mph 77% 0.00 in
18:29 42.4 °F 34.7 °F 23.42 in Calm   -999.0 mph 74% 0.00 in
18:45 41.5 °F 32.8 °F 23.42 in SSW 4.7 mph -999.0 mph 71% 0.00 in
19:00 41.0 °F 30.9 °F 23.42 in South 5.8 mph -999.0 mph 67% 0.00 in
19:15 40.6 °F 30.5 °F 23.42 in SSW 3.2 mph -999.0 mph 67% 0.00 in
19:30 39.9 °F 29.8 °F 23.42 in SSW 4.2 mph -999.0 mph 67% 0.00 in
19:46 39.4 °F 31.1 °F 23.42 in SW 2.7 mph -999.0 mph 72% 0.00 in
20:01 38.8 °F 32.8 °F 23.42 in ESE 4.7 mph -999.0 mph 79% 0.00 in
20:16 38.3 °F 32.7 °F 23.42 in SE 4.2 mph -999.0 mph 80% 0.00 in
20:32 37.8 °F 32.2 °F 23.42 in Calm   -999.0 mph 80% 0.00 in
20:47 37.6 °F 30.7 °F 23.42 in SSW 2.7 mph -999.0 mph 76% 0.00 in
21:02 37.8 °F 29.6 °F 23.42 in South 4.7 mph -999.0 mph 72% 0.00 in
21:17 37.8 °F 25.6 °F 23.42 in WSW 3.2 mph -999.0 mph 61% 0.00 in
21:33 37.9 °F 24.8 °F 23.42 in South 3.7 mph -999.0 mph 59% 0.00 in
21:48 37.8 °F 27.1 °F 23.42 in SW 1.1 mph -999.0 mph 65% 0.00 in
22:04 37.2 °F 29.0 °F 23.41 in South 1.7 mph -999.0 mph 72% 0.00 in
22:19 36.9 °F 31.0 °F 23.42 in West 2.7 mph -999.0 mph 79% 0.00 in
22:34 36.1 °F 31.7 °F 23.41 in SSE 3.7 mph -999.0 mph 84% 0.00 in
22:49 35.6 °F 31.2 °F 23.40 in South 4.2 mph -999.0 mph 84% 0.00 in
23:05 35.2 °F 31.1 °F 23.41 in SSW 5.3 mph -999.0 mph 85% 0.00 in
23:20 34.7 °F 28.5 °F 23.40 in SW 3.7 mph -999.0 mph 78% 0.00 in
23:35 34.3 °F 29.7 °F 23.40 in WSW 4.2 mph -999.0 mph 83% 0.00 in
23:50 34.2 °F 29.3 °F 23.40 in ESE 3.7 mph -999.0 mph 82% 0.00 in
Big Bear CA Weather